Time;durP1;ratioP1;P1;durP2;ratioP2;P2;SDS_P1;SDS_P2;PMS_P1;PMS_P2;Temp;Humidity;BMP_temperature;BMP_pressure;BME280_temperature;BME280_humidity;BME280_pressure;Samples;Min_cycle;Max_cycle;Signal;HPM_P1;HPM_P2
2023/02/21 02:15:15;;;;;;;67.72;26.30;;;7.80;99.90;;;;;;5096653;28;25058;-74
2023/02/21 02:18:02;;;;;;;72.05;29.30;;;7.80;99.90;;;;;;5098955;28;25111;-74
2023/02/21 02:20:48;;;;;;;64.05;25.13;;;7.80;99.90;;;;;;5100424;28;25109;-74
2023/02/21 02:23:51;;;;;;;59.60;25.63;;;7.80;99.90;;;;;;5082321;28;25098;-74
2023/02/21 02:26:43;;;;;;;61.33;24.75;;;7.80;99.90;;;;;;5099939;28;25097;-74
2023/02/21 02:29:37;;;;;;;59.47;23.98;;;7.80;99.90;;;;;;5100303;28;25071;-74
2023/02/21 02:32:28;;;;;;;63.22;25.83;;;7.80;99.90;;;;;;5100227;28;25100;-74
2023/02/21 02:35:14;;;;;;;69.97;26.10;;;7.80;99.90;;;;;;5100097;28;25072;-74
2023/02/21 02:38:03;;;;;;;69.40;28.20;;;7.80;99.90;;;;;;5099852;28;25073;-74
2023/02/21 02:40:58;;;;;;;63.85;23.85;;;7.80;99.90;;;;;;5099795;28;25120;-74
2023/02/21 02:43:32;;;;;;;73.78;30.75;;;7.80;99.90;;;;;;5100453;28;25107;-74
2023/02/21 02:46:24;;;;;;;69.05;25.38;;;7.80;99.90;;;;;;5099916;28;25062;-74
2023/02/21 02:49:03;;;;;;;74.22;28.75;;;7.80;99.90;;;;;;5099650;28;25060;-74
2023/02/21 02:51:33;;;;;;;72.05;29.10;;;7.80;99.90;;;;;;5081551;28;25103;-74
2023/02/21 02:54:00;;;;;;;74.32;27.92;;;7.80;99.90;;;;;;5081585;28;25066;-74
2023/02/21 02:56:28;;;;;;;54.60;24.35;;;7.80;99.90;;;;;;5081557;28;25138;-74
2023/02/21 02:59:10;;;;;;;75.70;30.55;;;7.80;99.90;;;;;;5099454;28;25081;-74
2023/02/21 03:01:52;;;;;;;75.68;30.05;;;7.80;99.90;;;;;;5081469;28;25078;-74
2023/02/21 03:04:53;;;;;;;69.90;25.38;;;7.80;99.90;;;;;;5099556;28;25101;-74
2023/02/21 03:07:36;;;;;;;68.38;27.85;;;7.80;99.90;;;;;;5099561;28;25061;-74
2023/02/21 03:10:25;;;;;;;64.43;25.83;;;7.80;99.90;;;;;;5099279;28;25074;-74
2023/02/21 03:13:02;;;;;;;60.50;25.70;;;7.80;99.90;;;;;;5099506;28;25071;-74
2023/02/21 03:15:49;;;;;;;65.88;26.50;;;7.80;99.90;;;;;;5099437;28;25056;-74
2023/02/21 03:18:42;;;;;;;67.57;25.92;;;7.80;99.90;;;;;;5099264;28;25056;-74
2023/02/21 03:21:21;;;;;;;70.18;27.80;;;7.80;99.90;;;;;;5091120;28;25081;-74
2023/02/21 03:23:52;;;;;;;74.30;27.85;;;7.80;99.90;;;;;;5098976;28;25067;-74
2023/02/21 03:26:20;;;;;;;60.90;23.80;;;7.80;99.90;;;;;;5098767;28;25130;-74
2023/02/21 03:28:49;;;;;;;62.13;25.55;;;7.80;99.90;;;;;;5098778;28;25077;-74
2023/02/21 03:31:24;;;;;;;78.97;28.42;;;7.80;99.90;;;;;;5099411;28;25084;-74
2023/02/21 03:33:52;;;;;;;72.07;28.20;;;7.90;99.90;;;;;;5098828;28;25070;-74
2023/02/21 03:36:20;;;;;;;78.68;29.58;;;7.90;99.90;;;;;;5099377;28;25070;-74
2023/02/21 03:38:47;;;;;;;77.60;25.83;;;7.80;99.90;;;;;;5098565;28;25117;-74
2023/02/21 03:41:15;;;;;;;71.10;28.92;;;7.80;99.90;;;;;;5099215;28;25107;-74
2023/02/21 03:43:43;;;;;;;68.80;26.80;;;7.90;99.90;;;;;;5098790;28;25128;-74
2023/02/21 03:46:10;;;;;;;74.57;28.27;;;7.90;99.90;;;;;;5098752;28;25072;-74
2023/02/21 03:48:37;;;;;;;71.63;28.90;;;7.80;99.90;;;;;;5080615;28;25052;-74
2023/02/21 03:51:05;;;;;;;64.57;24.60;;;7.90;99.90;;;;;;5098449;28;25057;-74
2023/02/21 03:53:33;;;;;;;77.78;27.20;;;7.90;99.90;;;;;;5098609;28;25136;-74
2023/02/21 03:56:01;;;;;;;76.30;28.10;;;7.90;99.90;;;;;;5098355;28;25053;-74
2023/02/21 03:58:28;;;;;;;79.80;29.52;;;7.90;99.90;;;;;;5098601;28;25061;-74
2023/02/21 04:00:56;;;;;;;75.00;28.23;;;7.90;99.90;;;;;;5098238;28;25066;-74
2023/02/21 04:03:23;;;;;;;72.30;29.05;;;7.90;99.90;;;;;;5098983;28;25061;-74
2023/02/21 04:05:51;;;;;;;63.47;25.55;;;7.90;99.90;;;;;;5098353;28;25057;-74
2023/02/21 04:08:18;;;;;;;69.30;26.08;;;7.90;99.90;;;;;;5098363;28;25142;-74
2023/02/21 04:10:45;;;;;;;68.15;25.20;;;7.90;99.90;;;;;;5080019;28;25098;-74
2023/02/21 04:13:12;;;;;;;66.15;26.40;;;7.90;99.90;;;;;;5098247;28;25127;-74
2023/02/21 04:15:40;;;;;;;63.78;24.85;;;7.90;99.90;;;;;;5098232;28;25073;-74
2023/02/21 04:18:07;;;;;;;62.10;25.13;;;7.90;99.90;;;;;;5097904;28;25105;-74
2023/02/21 04:20:34;;;;;;;70.38;27.58;;;7.90;99.90;;;;;;5079941;28;25074;-74
2023/02/21 04:23:01;;;;;;;70.32;27.08;;;7.90;99.90;;;;;;5098394;28;25059;-74
2023/02/21 04:25:29;;;;;;;71.85;27.65;;;7.90;99.90;;;;;;5097703;28;25066;-74
2023/02/21 04:27:56;;;;;;;60.80;22.83;;;7.90;99.90;;;;;;5097924;28;25114;-74
2023/02/21 04:30:24;;;;;;;66.75;26.05;;;7.90;99.90;;;;;;5097700;28;25147;-74
2023/02/21 04:32:51;;;;;;;64.97;25.80;;;7.90;99.90;;;;;;5098187;28;25067;-74
2023/02/21 04:35:18;;;;;;;67.38;27.48;;;7.90;99.90;;;;;;5097535;28;25073;-74
2023/02/21 04:37:45;;;;;;;64.53;24.85;;;7.90;99.90;;;;;;5097561;28;25108;-74
2023/02/21 04:40:13;;;;;;;67.05;26.48;;;7.90;99.90;;;;;;5097431;28;25084;-74
2023/02/21 04:42:40;;;;;;;72.13;27.88;;;7.90;99.90;;;;;;5079641;28;25093;-74
2023/02/21 04:45:07;;;;;;;83.50;29.48;;;7.90;99.90;;;;;;5097327;28;25098;-74
2023/02/21 04:47:35;;;;;;;74.72;28.92;;;7.80;99.90;;;;;;5097509;28;25107;-74
2023/02/21 04:50:03;;;;;;;59.35;25.58;;;7.80;99.90;;;;;;5097855;28;25067;-74
2023/02/21 04:52:31;;;;;;;76.95;26.42;;;7.80;99.90;;;;;;5097282;28;25054;-74
2023/02/21 04:54:59;;;;;;;78.47;29.48;;;7.80;99.90;;;;;;5097201;28;25114;-74
2023/02/21 04:57:26;;;;;;;84.88;28.02;;;7.80;99.90;;;;;;5097940;28;25069;-74
2023/02/21 04:59:58;;;;;;;70.03;23.83;;;7.80;99.90;;;;;;5097466;28;25064;-74
2023/02/21 05:02:26;;;;;;;71.38;28.05;;;7.80;99.90;;;;;;5097461;28;25119;-74
2023/02/21 05:04:54;;;;;;;81.53;30.65;;;7.80;99.90;;;;;;5097293;28;25065;-74
2023/02/21 05:07:22;;;;;;;76.72;28.30;;;7.80;99.90;;;;;;5097223;28;25128;-74
2023/02/21 05:09:49;;;;;;;78.32;28.63;;;7.80;99.90;;;;;;5097558;28;25103;-74
2023/02/21 05:12:16;;;;;;;79.50;28.77;;;7.80;99.90;;;;;;5098425;28;25135;-74
2023/02/21 05:14:44;;;;;;;69.47;26.10;;;7.80;99.90;;;;;;5096956;28;25069;-74
2023/02/21 05:17:11;;;;;;;77.38;27.67;;;7.80;99.90;;;;;;5097981;28;25057;-74
2023/02/21 05:19:39;;;;;;;73.00;25.05;;;7.80;99.90;;;;;;5097316;28;25097;-73
2023/02/21 05:22:06;;;;;;;85.50;29.48;;;7.80;99.90;;;;;;5078810;28;25104;-74
2023/02/21 05:24:34;;;;;;;82.15;29.05;;;7.80;99.90;;;;;;5097255;28;25070;-74
2023/02/21 05:27:01;;;;;;;82.30;29.05;;;7.80;99.90;;;;;;5096725;28;25055;-74
2023/02/21 05:29:29;;;;;;;81.95;30.25;;;7.80;99.90;;;;;;5096979;28;25067;-74
2023/02/21 05:31:56;;;;;;;79.95;28.98;;;7.80;99.90;;;;;;5096915;28;25072;-74
2023/02/21 05:34:23;;;;;;;74.70;27.63;;;7.80;99.90;;;;;;5096658;28;25085;-74
2023/02/21 05:36:51;;;;;;;75.93;28.50;;;7.80;99.90;;;;;;5097167;28;25128;-74
2023/02/21 05:39:18;;;;;;;74.35;28.48;;;7.80;99.90;;;;;;5096473;28;25056;-73
2023/02/21 05:41:49;;;;;;;85.97;30.88;;;7.80;99.90;;;;;;5096973;28;25067;-74
2023/02/21 05:44:17;;;;;;;77.35;27.98;;;7.80;99.90;;;;;;5078821;28;25043;-74
2023/02/21 05:46:44;;;;;;;72.90;28.60;;;7.80;99.90;;;;;;5096393;28;25054;-74
2023/02/21 05:49:12;;;;;;;82.70;29.65;;;7.80;99.90;;;;;;5096393;28;25062;-74
2023/02/21 05:51:42;;;;;;;87.63;29.85;;;7.80;99.90;;;;;;5099212;28;25080;-74
2023/02/21 05:54:14;;;;;;;82.35;29.63;;;7.80;99.90;;;;;;5103341;28;25067;-74
2023/02/21 05:56:43;;;;;;;86.35;28.67;;;7.80;99.90;;;;;;5103105;28;25075;-74
2023/02/21 05:59:11;;;;;;;72.85;26.83;;;7.70;99.90;;;;;;5085087;28;25073;-74
2023/02/21 06:01:39;;;;;;;92.75;31.00;;;7.80;99.90;;;;;;5103074;28;25076;-74
2023/02/21 06:04:07;;;;;;;93.03;29.08;;;7.70;99.90;;;;;;5103847;28;25126;-74
2023/02/21 06:06:37;;;;;;;81.88;27.73;;;7.70;99.90;;;;;;5102974;28;25094;-74
2023/02/21 06:09:06;;;;;;;93.53;30.17;;;7.70;99.90;;;;;;5103041;28;25138;-74
2023/02/21 06:11:36;;;;;;;83.93;31.20;;;7.70;99.90;;;;;;5103011;28;25097;-74
2023/02/21 06:14:06;;;;;;;86.05;30.58;;;7.70;99.90;;;;;;5103453;28;25054;-74
2023/02/21 06:16:35;;;;;;;93.65;27.80;;;7.70;99.90;;;;;;5102777;28;25090;-74
2023/02/21 06:19:04;;;;;;;90.75;30.25;;;7.70;99.90;;;;;;5103192;28;25055;-74
2023/02/21 06:21:34;;;;;;;80.40;27.80;;;7.70;99.90;;;;;;5102864;28;25060;-74
2023/02/21 06:24:02;;;;;;;84.55;30.15;;;7.70;99.90;;;;;;5103289;28;25095;-74
2023/02/21 06:26:30;;;;;;;75.38;26.08;;;7.70;99.90;;;;;;5084757;28;25057;-74
2023/02/21 06:28:57;;;;;;;84.28;28.50;;;7.70;99.90;;;;;;5103119;28;25067;-74
2023/02/21 06:31:25;;;;;;;57.45;22.17;;;7.70;99.90;;;;;;5103057;28;25101;-74
2023/02/21 06:33:53;;;;;;;84.03;30.92;;;7.70;99.90;;;;;;5102912;28;25054;-74
2023/02/21 06:36:25;;;;;;;81.03;27.25;;;7.70;99.90;;;;;;5102776;28;25065;-74
2023/02/21 06:38:55;;;;;;;84.40;28.52;;;7.70;99.90;;;;;;5085478;28;25102;-74
2023/02/21 06:41:26;;;;;;;83.93;27.98;;;7.70;99.90;;;;;;5102718;28;25076;-74
2023/02/21 06:43:55;;;;;;;81.93;26.90;;;7.70;99.90;;;;;;5103184;28;25058;-74
2023/02/21 06:46:27;;;;;;;84.32;28.27;;;7.70;99.90;;;;;;5102555;28;25051;-74
2023/02/21 06:48:54;;;;;;;84.97;27.20;;;7.70;99.90;;;;;;5103293;28;25066;-74
2023/02/21 06:51:28;;;;;;;82.07;28.15;;;7.70;99.90;;;;;;5102616;28;25060;-74
2023/02/21 06:53:57;;;;;;;72.05;24.75;;;7.70;99.90;;;;;;5103111;28;25111;-74
2023/02/21 06:56:25;;;;;;;64.60;23.30;;;7.70;99.90;;;;;;5102590;28;25070;-74
2023/02/21 06:58:53;;;;;;;67.22;25.17;;;7.70;99.90;;;;;;5102599;28;25084;-73
2023/02/21 07:01:21;;;;;;;66.95;21.92;;;7.70;99.90;;;;;;5102539;28;25084;-73
2023/02/21 07:03:49;;;;;;;76.07;24.77;;;7.70;99.90;;;;;;5099800;28;25059;-73
2023/02/21 07:06:16;;;;;;;75.53;23.75;;;7.70;99.90;;;;;;5099247;28;25100;-74
2023/02/21 07:08:44;;;;;;;61.75;22.48;;;7.80;99.90;;;;;;5099867;28;25100;-74
2023/02/21 07:11:11;;;;;;;63.67;23.15;;;7.70;99.90;;;;;;5099499;28;25061;-73
2023/02/21 07:13:39;;;;;;;60.92;20.42;;;7.70;99.90;;;;;;5099602;28;25118;-78
2023/02/21 07:16:06;;;;;;;64.20;21.08;;;7.70;99.90;;;;;;5081406;28;25122;-81
2023/02/21 07:18:33;;;;;;;55.72;21.33;;;7.80;99.90;;;;;;5098417;28;25073;-81
2023/02/21 07:21:01;;;;;;;62.25;21.60;;;7.80;99.90;;;;;;5097980;28;25068;-77
2023/02/21 07:23:28;;;;;;;60.30;20.40;;;7.70;99.90;;;;;;5099189;28;25065;-79
2023/02/21 07:25:55;;;;;;;62.55;20.75;;;7.70;99.90;;;;;;5080909;28;25136;-76
2023/02/21 07:28:23;;;;;;;60.95;21.77;;;7.70;99.90;;;;;;5081005;28;25121;-78
2023/02/21 07:30:50;;;;;;;62.88;20.00;;;7.70;99.90;;;;;;5099075;28;25110;-80
2023/02/21 07:33:18;;;;;;;67.00;23.08;;;7.80;99.90;;;;;;5081048;28;25081;-80
2023/02/21 07:35:46;;;;;;;58.90;19.55;;;7.70;99.90;;;;;;5080922;28;25136;-93
2023/02/21 07:38:22;;;;;;;69.90;23.10;;;7.70;99.90;;;;;;5098874;28;25068;-82
2023/02/21 07:40:49;;;;;;;;;;;7.70;99.90;;;;;;5099271;28;25156;-86
2023/02/21 07:43:16;;;;;;;66.55;22.42;;;7.70;99.90;;;;;;5099318;28;24076;-85
2023/02/21 07:45:44;;;;;;;60.35;21.25;;;7.80;99.90;;;;;;5080640;28;25073;-85
2023/02/21 07:48:13;;;;;;;55.47;18.95;;;7.80;99.90;;;;;;5081201;28;25073;-88
2023/02/21 07:50:44;;;;;;;65.05;20.77;;;7.80;99.90;;;;;;5080154;28;25107;-87
2023/02/21 07:53:13;;;;;;;54.63;21.83;;;7.80;99.90;;;;;;5080625;28;25083;-73
2023/02/21 07:55:40;;;;;;;60.80;22.90;;;7.80;99.90;;;;;;5098377;28;25151;-75
2023/02/21 07:58:09;;;;;;;65.10;21.67;;;7.80;99.90;;;;;;5098408;28;25160;-75
2023/02/21 08:00:36;;;;;;;66.45;22.65;;;7.80;99.90;;;;;;5098251;28;25103;-73
2023/02/21 08:03:04;;;;;;;59.85;22.05;;;7.80;99.90;;;;;;5098422;28;25123;-73
2023/02/21 08:05:32;;;;;;;53.75;19.75;;;7.90;99.90;;;;;;5098662;28;25054;-75
2023/02/21 08:08:00;;;;;;;68.80;23.02;;;7.90;99.90;;;;;;5098437;28;25099;-75
2023/02/21 08:10:28;;;;;;;61.05;22.52;;;7.90;99.90;;;;;;5080122;28;25104;-75
2023/02/21 08:12:55;;;;;;;72.40;24.20;;;7.90;99.90;;;;;;5098545;28;25132;-77
2023/02/21 08:15:22;;;;;;;66.53;24.42;;;7.90;99.90;;;;;;5097927;28;25128;-75
2023/02/21 08:17:50;;;;;;;59.72;20.77;;;7.90;99.90;;;;;;5098623;28;25061;-74
2023/02/21 08:20:18;;;;;;;69.78;24.88;;;7.90;99.90;;;;;;5098455;28;25101;-73
2023/02/21 08:22:45;;;;;;;61.47;23.20;;;7.90;99.90;;;;;;5098610;28;25056;-73
2023/02/21 08:25:14;;;;;;;66.05;23.42;;;8.00;99.90;;;;;;5097687;28;25093;-73
2023/02/21 08:27:43;;;;;;;65.47;23.40;;;8.00;99.90;;;;;;5098623;28;25140;-72
2023/02/21 08:30:14;;;;;;;61.65;22.33;;;8.00;99.90;;;;;;5097693;28;25125;-72
2023/02/21 08:32:42;;;;;;;67.53;24.45;;;8.00;99.90;;;;;;5098093;28;25096;-72
2023/02/21 08:35:14;;;;;;;64.65;24.20;;;8.00;99.90;;;;;;5097572;28;25052;-73
2023/02/21 08:37:46;;;;;;;63.88;23.48;;;8.10;99.90;;;;;;5097622;28;25063;-74
2023/02/21 08:40:14;;;;;;;71.68;23.40;;;8.10;99.90;;;;;;5097536;28;25099;-73
2023/02/21 08:42:41;;;;;;;60.10;21.00;;;8.10;99.90;;;;;;5097960;28;25158;-72
2023/02/21 08:45:17;;;;;;;60.53;24.40;;;8.10;99.90;;;;;;5097889;28;25114;-73
2023/02/21 08:47:45;;;;;;;57.72;21.83;;;8.10;99.90;;;;;;5098026;28;25082;-72
2023/02/21 08:50:12;;;;;;;48.13;19.20;;;8.10;99.90;;;;;;5097354;28;25112;-73
2023/02/21 08:52:40;;;;;;;60.00;23.17;;;8.20;99.90;;;;;;5079338;28;24931;-73
2023/02/21 08:55:07;;;;;;;57.17;22.48;;;8.20;99.90;;;;;;5097247;28;25132;-78
2023/02/21 08:57:35;;;;;;;67.65;24.58;;;8.20;99.90;;;;;;5097676;28;25112;-73
2023/02/21 09:00:05;;;;;;;51.47;20.63;;;8.20;99.90;;;;;;5097699;28;25117;-74
2023/02/21 09:02:32;;;;;;;55.03;20.42;;;8.30;99.90;;;;;;5097962;28;25093;-74
2023/02/21 09:05:00;;;;;;;50.28;20.15;;;8.30;99.90;;;;;;5096937;28;25060;-73
2023/02/21 09:07:29;;;;;;;49.10;19.00;;;8.30;99.90;;;;;;5079166;28;25070;-76
2023/02/21 09:09:57;;;;;;;48.75;20.40;;;8.30;99.90;;;;;;5096713;28;25079;-75
2023/02/21 09:12:24;;;;;;;47.03;19.42;;;8.40;99.90;;;;;;5096953;28;25048;-75
2023/02/21 09:14:51;;;;;;;42.13;17.50;;;8.40;99.90;;;;;;5078939;28;25054;-75
2023/02/21 09:17:19;;;;;;;37.95;15.40;;;8.40;99.90;;;;;;5097431;28;25123;-75
2023/02/21 09:19:48;;;;;;;43.65;17.40;;;8.50;99.90;;;;;;5097305;28;25060;-75
2023/02/21 09:22:17;;;;;;;40.05;16.08;;;8.50;99.90;;;;;;5097358;28;25067;-75
2023/02/21 09:24:46;;;;;;;38.80;16.70;;;8.50;99.90;;;;;;5097042;28;25075;-75
2023/02/21 09:27:16;;;;;;;38.55;16.45;;;8.60;99.90;;;;;;5096338;28;25078;-75
2023/02/21 09:29:46;;;;;;;40.35;16.77;;;8.60;99.90;;;;;;5096667;28;25105;-75
2023/02/21 09:32:14;;;;;;;39.00;16.25;;;8.70;99.90;;;;;;5096978;28;25109;-75
2023/02/21 09:34:41;;;;;;;40.80;15.23;;;8.70;99.90;;;;;;5096651;28;25084;-76
2023/02/21 09:37:08;;;;;;;36.72;16.30;;;8.70;99.90;;;;;;5078391;28;25077;-76
2023/02/21 09:39:38;;;;;;;42.55;16.77;;;8.70;99.90;;;;;;5078580;28;25117;-75
2023/02/21 09:42:06;;;;;;;35.67;15.93;;;8.80;99.90;;;;;;5096861;28;25079;-75
2023/02/21 09:44:34;;;;;;;33.42;15.15;;;8.80;99.90;;;;;;5096495;28;25052;-74
2023/02/21 09:47:06;;;;;;;40.50;17.05;;;8.80;99.90;;;;;;5097010;28;25113;-75
2023/02/21 09:49:40;;;;;;;36.67;15.85;;;8.80;99.90;;;;;;5096912;28;25088;-74
2023/02/21 09:52:26;;;;;;;33.28;15.20;;;8.90;99.90;;;;;;5096884;28;25094;-75
2023/02/21 09:55:04;;;;;;;32.80;14.18;;;8.90;99.90;;;;;;5096411;28;25072;-74
2023/02/21 09:57:33;;;;;;;32.38;15.10;;;9.00;99.90;;;;;;5096390;28;25072;-76
2023/02/21 10:00:00;;;;;;;38.25;16.48;;;9.00;99.90;;;;;;5096327;28;25057;-76
2023/02/21 10:03:15;;;;;;;34.45;16.00;;;9.00;99.90;;;;;;5096565;28;25056;-76
2023/02/21 10:05:48;;;;;;;38.20;15.32;;;9.10;99.90;;;;;;5096213;28;25058;-76
2023/02/21 10:08:41;;;;;;;31.13;14.30;;;9.10;99.90;;;;;;5078308;28;25092;-75
2023/02/21 10:11:39;;;;;;;30.15;15.57;;;9.20;99.90;;;;;;5096626;28;25087;-75
2023/02/21 10:14:17;;;;;;;30.48;14.93;;;9.30;99.90;;;;;;5096799;28;25158;-73
2023/02/21 10:17:24;;;;;;;33.35;15.85;;;9.30;99.90;;;;;;5096487;28;25125;-76
2023/02/21 10:20:04;;;;;;;31.58;15.15;;;9.40;99.90;;;;;;5095952;28;25157;-74
2023/02/21 10:22:38;;;;;;;30.48;14.40;;;9.40;99.90;;;;;;5096129;28;25079;-73
2023/02/21 10:25:29;;;;;;;29.15;14.55;;;9.50;99.90;;;;;;5078054;28;25053;-74
2023/02/21 10:27:58;;;;;;;27.00;13.63;;;9.50;99.90;;;;;;5096317;28;25089;-74
2023/02/21 10:30:36;;;;;;;33.53;15.70;;;9.60;99.90;;;;;;5096122;28;25088;-74
2023/02/21 10:33:08;;;;;;;32.22;15.98;;;9.70;99.90;;;;;;5096115;28;25071;-74
2023/02/21 10:35:40;;;;;;;29.05;13.68;;;9.70;99.90;;;;;;5078174;28;25118;-74
2023/02/21 10:38:13;;;;;;;28.30;14.20;;;9.80;99.90;;;;;;5097715;28;25128;-74
2023/02/21 10:40:53;;;;;;;24.02;12.77;;;9.90;99.90;;;;;;5099818;28;25057;-73
2023/02/21 10:43:31;;;;;;;28.88;14.00;;;9.90;99.90;;;;;;5100394;28;25064;-74
2023/02/21 10:46:23;;;;;;;32.00;13.25;;;9.90;99.90;;;;;;5099694;28;25129;-74
2023/02/21 10:48:55;;;;;;;27.38;13.43;;;9.90;99.90;;;;;;5100130;28;25070;-74
2023/02/21 10:51:34;;;;;;;28.02;13.40;;;9.90;99.90;;;;;;5099525;28;25081;-74
2023/02/21 10:54:19;;;;;;;25.88;12.93;;;9.90;99.90;;;;;;5099631;28;25110;-73
2023/02/21 10:56:48;;;;;;;25.63;13.38;;;9.90;99.90;;;;;;5099604;28;25069;-73
2023/02/21 10:59:34;;;;;;;32.30;14.20;;;9.90;99.90;;;;;;5099747;28;25130;-72
2023/02/21 11:02:03;;;;;;;27.52;13.40;;;9.90;99.90;;;;;;5100041;28;25091;-73
2023/02/21 11:04:34;;;;;;;23.10;12.18;;;10.00;99.90;;;;;;5099390;28;25077;-73
2023/02/21 11:07:09;;;;;;;20.48;10.90;;;10.10;99.90;;;;;;5099606;28;25066;-74
2023/02/21 11:09:43;;;;;;;28.58;13.20;;;10.20;99.90;;;;;;5081328;28;25111;-73
2023/02/21 11:12:17;;;;;;;28.83;12.63;;;10.10;99.90;;;;;;5099206;28;25078;-74
2023/02/21 11:14:57;;;;;;;25.77;13.57;;;10.20;99.90;;;;;;5099764;28;25060;-72
2023/02/21 11:17:32;;;;;;;28.55;11.50;;;10.20;99.90;;;;;;5081172;28;25143;-72
2023/02/21 11:20:19;;;;;;;29.40;13.88;;;10.10;99.90;;;;;;5099028;28;25143;-73
2023/02/21 11:22:48;;;;;;;28.40;13.32;;;10.20;99.90;;;;;;5081640;28;25129;-72
2023/02/21 11:25:38;;;;;;;27.25;13.73;;;10.30;99.90;;;;;;5098894;28;25095;-72
2023/02/21 11:28:14;;;;;;;29.60;13.95;;;10.30;99.90;;;;;;5098998;28;25061;-73
2023/02/21 11:31:01;;;;;;;27.55;13.52;;;10.30;99.90;;;;;;5099204;28;25052;-75
2023/02/21 11:33:29;;;;;;;29.05;13.40;;;10.40;99.90;;;;;;5098784;28;25075;-72
2023/02/21 11:36:16;;;;;;;26.80;13.50;;;10.40;99.90;;;;;;5098839;28;25086;-72
2023/02/21 11:39:26;;;;;;;25.80;13.35;;;10.40;99.90;;;;;;5098679;28;25084;-72
2023/02/21 11:41:56;;;;;;;28.50;13.32;;;10.40;99.90;;;;;;5098549;28;25074;-72
2023/02/21 11:44:28;;;;;;;30.77;14.48;;;10.40;99.90;;;;;;5080845;28;25110;-74
2023/02/21 11:47:24;;;;;;;28.92;14.65;;;10.40;99.90;;;;;;5098718;28;25075;-74
2023/02/21 11:50:10;;;;;;;28.38;12.68;;;10.40;99.90;;;;;;5098138;28;25135;-75
2023/02/21 11:53:00;;;;;;;32.10;14.25;;;10.40;99.90;;;;;;5098960;28;25133;-75
2023/02/21 11:55:27;;;;;;;32.60;14.48;;;10.30;99.90;;;;;;5080469;28;25381;-73
2023/02/21 11:58:30;;;;;;;25.23;13.95;;;10.30;99.90;;;;;;5098398;28;25061;-73
2023/02/21 12:01:16;;;;;;;33.13;15.50;;;10.30;99.90;;;;;;5098586;28;25110;-76
2023/02/21 12:04:20;;;;;;;35.72;15.57;;;10.30;99.90;;;;;;5098432;28;25081;-74
2023/02/21 12:07:12;;;;;;;32.65;15.57;;;10.20;99.90;;;;;;5098156;28;25069;-72
2023/02/21 12:09:54;;;;;;;32.90;15.48;;;10.20;99.90;;;;;;5080150;28;25090;-75
2023/02/21 12:12:45;;;;;;;29.60;14.82;;;10.20;99.90;;;;;;5080240;28;25086;-73
2023/02/21 12:15:13;;;;;;;31.38;14.35;;;10.20;99.90;;;;;;5097925;28;25101;-72
2023/02/21 12:17:52;;;;;;;29.80;15.40;;;10.20;99.90;;;;;;5098257;28;25080;-73
2023/02/21 12:20:20;;;;;;;33.42;15.85;;;10.10;99.90;;;;;;5098179;28;25061;-73
2023/02/21 12:23:16;;;;;;;36.90;16.38;;;10.10;99.90;;;;;;5080062;28;25158;-74
2023/02/21 12:26:10;;;;;;;38.90;18.15;;;10.00;99.90;;;;;;5090573;28;25115;-75
2023/02/21 12:28:54;;;;;;;32.50;15.93;;;10.00;99.90;;;;;;5097983;28;25069;-74
2023/02/21 12:32:00;;;;;;;35.80;16.08;;;10.00;99.90;;;;;;5097962;28;25079;-74
2023/02/21 12:35:03;;;;;;;37.67;15.98;;;9.90;99.90;;;;;;5097586;28;25077;-74
2023/02/21 12:38:15;;;;;;;32.47;15.02;;;9.90;99.90;;;;;;5094351;28;25083;-74
2023/02/21 12:41:15;;;;;;;37.55;16.15;;;10.00;99.90;;;;;;5084517;28;25100;-75
2023/02/21 12:43:52;;;;;;;31.70;16.58;;;10.10;99.90;;;;;;5063581;28;25128;-75
2023/02/21 12:46:23;;;;;;;32.90;15.10;;;10.20;99.90;;;;;;5097854;28;25053;-74
2023/02/21 12:49:26;;;;;;;34.83;16.20;;;10.30;99.90;;;;;;5097893;28;25114;-74
2023/02/21 12:52:14;;;;;;;34.17;15.23;;;10.40;99.90;;;;;;5096923;28;25130;-74
2023/02/21 12:55:06;;;;;;;37.35;16.67;;;10.50;99.90;;;;;;5097882;28;25142;-74
2023/02/21 12:57:57;;;;;;;34.90;16.45;;;10.50;99.90;;;;;;5097440;28;25098;-74
2023/02/21 13:00:27;;;;;;;35.85;16.95;;;10.50;99.90;;;;;;5097460;28;25081;-74
2023/02/21 13:03:17;;;;;;;42.17;17.17;;;10.40;99.90;;;;;;5096650;28;25075;-74
2023/02/21 13:06:20;;;;;;;38.95;16.95;;;10.30;99.90;;;;;;5097313;28;25060;-74
2023/02/21 13:09:00;;;;;;;38.42;16.85;;;10.20;99.90;;;;;;5063310;28;25055;-74
2023/02/21 13:11:47;;;;;;;45.53;18.65;;;10.20;99.90;;;;;;5097306;28;25069;-74
2023/02/21 13:14:18;;;;;;;;;;;10.10;99.90;;;;;;5097460;28;25147;-74
2023/02/21 13:16:44;;;;;;;44.20;17.25;;;10.10;99.90;;;;;;5097017;28;24122;-74
2023/02/21 13:19:13;;;;;;;45.75;18.13;;;10.10;99.90;;;;;;5097318;28;25056;-74
2023/02/21 13:21:53;;;;;;;43.40;17.98;;;10.00;99.90;;;;;;5097402;28;25047;-74
2023/02/21 13:24:41;;;;;;;42.13;17.67;;;10.00;99.90;;;;;;5097114;28;25076;-74
2023/02/21 13:27:45;;;;;;;42.50;18.58;;;9.90;99.90;;;;;;5096908;28;25118;-74
2023/02/21 13:30:23;;;;;;;42.72;17.52;;;9.80;99.90;;;;;;5078774;28;25134;-74
2023/02/21 13:32:57;;;;;;;41.80;17.58;;;9.70;99.90;;;;;;5097254;28;25076;-74
2023/02/21 13:35:37;;;;;;;37.45;16.98;;;9.70;99.90;;;;;;5096669;28;25099;-74
2023/02/21 13:38:09;;;;;;;47.17;18.90;;;9.60;99.90;;;;;;5096830;28;25105;-74
2023/02/21 13:40:51;;;;;;;41.20;18.08;;;9.60;99.90;;;;;;5078655;28;25056;-74
2023/02/21 13:43:32;;;;;;;53.28;21.10;;;9.50;99.90;;;;;;5096844;28;25077;-74
2023/02/21 13:46:44;;;;;;;52.60;21.25;;;9.50;99.90;;;;;;5096438;28;25064;-74
2023/02/21 13:49:43;;;;;;;47.90;19.50;;;9.50;99.90;;;;;;5098220;28;25081;-74
2023/02/21 13:52:36;;;;;;;51.05;20.75;;;9.40;99.90;;;;;;5096462;28;25113;-74
2023/02/21 13:55:20;;;;;;;42.90;17.70;;;9.30;99.90;;;;;;5078474;28;25106;-74
2023/02/21 13:58:11;;;;;;;59.63;21.02;;;9.30;99.90;;;;;;5098212;28;25057;-74
2023/02/21 14:00:39;;;;;;;51.80;19.80;;;9.30;99.90;;;;;;5096863;28;25107;-74
2023/02/21 14:03:11;;;;;;;52.08;21.48;;;9.30;99.90;;;;;;5096970;28;25060;-74
2023/02/21 14:05:45;;;;;;;59.55;20.80;;;9.30;99.90;;;;;;5078937;28;25052;-74
2023/02/21 14:08:48;;;;;;;59.78;22.15;;;9.20;99.90;;;;;;5097069;28;25085;-74
2023/02/21 14:11:36;;;;;;;53.25;18.83;;;9.20;99.90;;;;;;5096307;28;25074;-74
2023/02/21 14:14:25;;;;;;;60.65;20.73;;;9.20;99.90;;;;;;5099755;28;25075;-74
2023/02/21 14:17:02;;;;;;;48.92;18.42;;;9.10;99.90;;;;;;5100025;28;25093;-73
2023/02/21 14:19:40;;;;;;;51.70;19.17;;;9.10;99.90;;;;;;5100352;28;25121;-74
2023/02/21 14:22:15;;;;;;;44.13;19.00;;;9.10;99.90;;;;;;5100538;28;25108;-79
2023/02/21 14:24:52;;;;;;;44.55;18.02;;;9.10;99.90;;;;;;5100220;28;25059;-90
2023/02/21 14:27:19;;;;;;;43.17;17.13;;;9.20;99.90;;;;;;5100326;28;25054;-80
2023/02/21 14:30:10;;;;;;;43.83;17.10;;;9.20;99.90;;;;;;5100361;28;25057;-77
2023/02/21 14:32:49;;;;;;;45.75;18.35;;;9.30;99.90;;;;;;5099892;28;25079;-76
2023/02/21 14:35:20;;;;;;;39.10;16.58;;;9.30;99.90;;;;;;5099923;28;25058;-77
2023/02/21 14:38:05;;;;;;;40.25;17.10;;;9.30;99.90;;;;;;5100175;28;25138;-77
2023/02/21 14:40:36;;;;;;;37.05;15.63;;;9.30;99.90;;;;;;5099847;28;25071;-76
2023/02/21 14:43:19;;;;;;;37.13;17.15;;;9.40;99.90;;;;;;5100122;28;25067;-76
2023/02/21 14:46:14;;;;;;;36.63;15.45;;;9.40;99.90;;;;;;5100206;28;25067;-76
2023/02/21 14:48:57;;;;;;;36.95;16.30;;;9.40;99.90;;;;;;5100324;28;25089;-75
2023/02/21 14:51:49;;;;;;;40.22;16.27;;;9.40;99.90;;;;;;5100231;28;25131;-75
2023/02/21 14:54:29;;;;;;;37.97;16.27;;;9.40;99.90;;;;;;5099673;28;25127;-75
2023/02/21 14:57:21;;;;;;;34.60;15.25;;;9.40;99.90;;;;;;5100381;28;25113;-75
2023/02/21 15:00:13;;;;;;;37.42;15.00;;;9.30;99.90;;;;;;5099784;28;25075;-76
2023/02/21 15:02:54;;;;;;;43.00;17.17;;;9.30;99.90;;;;;;5081545;28;25107;-76
2023/02/21 15:05:50;;;;;;;41.83;18.02;;;9.30;99.90;;;;;;5099561;28;25104;-75
2023/02/21 15:08:23;;;;;;;46.45;17.45;;;9.20;99.90;;;;;;5091296;28;25053;-76
2023/02/21 15:11:01;;;;;;;40.60;17.45;;;9.20;99.90;;;;;;5099824;28;25126;-75
2023/02/21 15:13:31;;;;;;;40.08;16.60;;;9.10;99.90;;;;;;5082951;28;25058;-78
2023/02/21 15:16:12;;;;;;;45.83;17.67;;;9.10;99.90;;;;;;5081503;28;25135;-79
2023/02/21 15:18:57;;;;;;;41.22;17.45;;;9.00;99.90;;;;;;5099163;28;25078;-76
2023/02/21 15:21:25;;;;;;;49.17;18.60;;;9.00;99.90;;;;;;5099136;28;25096;-76
2023/02/21 15:24:14;;;;;;;43.58;15.75;;;8.90;99.90;;;;;;5098159;28;25077;-77
2023/02/21 15:26:42;;;;;;;47.97;18.70;;;8.90;99.90;;;;;;5081123;28;25048;-76
2023/02/21 15:29:11;;;;;;;40.58;17.42;;;8.90;99.90;;;;;;5099174;28;25054;-76
2023/02/21 15:31:54;;;;;;;54.72;17.40;;;8.80;99.90;;;;;;5099447;28;25077;-76